Acme, Washington
Current Conditions -  °F | °C
As of 12:53 AM on Friday 24 Oct 2014 (Local Time) from KBLI Reporting Station
Broken Clouds Broken Clouds  
Wind Chill: 51°   Ceiling: 8500
Heat Index: 51°   Visibility: 10mi
Dew Point: 44°   Wind: 5mph
Humidity: 77%   Direction: 150°SSE
Pressure: 30"   Gusts: NA
Location:  48.72°N, 122.21°W
Report Text: KBLI 240753Z AUTO 15004KT 10SM SCT031 SCT055 BKN085 11/07 A3000 RMK AO2 SLP166 T01060067 401330094
Loading
Personal Weather Stations






























Interactive Weather Map
Tropical Storm Tracking
New forecast layout! Learn more

10-Day Weather Forecast

Advertisements
Track Severe Weather on mobile